createdAt,value
2015-09-30T00:00:03.262Z,59.32
2015-09-30T00:00:15.652Z,59.32
2015-09-30T00:00:28.043Z,59.32
2015-09-30T00:00:39.731Z,59.6
2015-09-30T00:00:52.119Z,59.6
2015-09-30T00:01:04.525Z,59.51
2015-09-30T00:01:16.916Z,59.41
2015-09-30T00:01:29.307Z,59.41
2015-09-30T00:01:41.714Z,59.41
2015-09-30T00:01:54.589Z,59.41
2015-09-30T00:02:07.011Z,59.22
2015-09-30T00:02:19.417Z,59.22
2015-09-30T00:02:32.073Z,59.22
2015-09-30T00:02:44.466Z,59.13
2015-09-30T00:02:56.857Z,59.22
2015-09-30T00:03:09.263Z,58.94
2015-09-30T00:03:21.653Z,58.94
2015-09-30T00:03:34.060Z,58.94
2015-09-30T00:03:46.483Z,59.16
2015-09-30T00:03:58.904Z,58.94
2015-09-30T00:04:11.311Z,59.03
2015-09-30T00:04:23.701Z,59.13
2015-09-30T00:04:36.092Z,59.03
2015-09-30T00:04:48.562Z,58.84
2015-09-30T00:05:00.952Z,59.03
2015-09-30T00:05:13.359Z,58.87
2015-09-30T00:05:25.765Z,58.97
2015-09-30T00:05:38.171Z,58.94
2015-09-30T00:05:50.595Z,58.94
2015-09-30T00:06:03.017Z,59.16
2015-09-30T00:06:15.439Z,58.97
2015-09-30T00:06:27.829Z,58.97
2015-09-30T00:06:40.220Z,58.94
2015-09-30T00:06:52.597Z,58.87
2015-09-30T00:07:05.003Z,58.97
2015-09-30T00:07:16.675Z,59.16
2015-09-30T00:07:29.081Z,59.32
2015-09-30T00:07:41.488Z,59.06
2015-09-30T00:07:53.911Z,59.06
2015-09-30T00:08:06.349Z,59.16
2015-09-30T00:08:18.740Z,59.22
2015-09-30T00:08:31.130Z,59.22
2015-09-30T00:08:43.850Z,59.32
2015-09-30T00:08:56.241Z,59.13
2015-09-30T00:09:08.631Z,59.25
2015-09-30T00:09:21.022Z,59.25
2015-09-30T00:09:33.428Z,59.32
2015-09-30T00:09:45.837Z,59.32
2015-09-30T00:09:58.259Z,59.16
2015-09-30T00:10:10.681Z,59.22
2015-09-30T00:10:23.072Z,59.25
2015-09-30T00:10:35.462Z,59.16
2015-09-30T00:10:47.870Z,59.22
2015-09-30T00:11:00.276Z,59.35
2015-09-30T00:11:12.666Z,59.22
2015-09-30T00:11:25.073Z,59.06
2015-09-30T00:11:37.479Z,59.06
2015-09-30T00:11:49.904Z,59.25
2015-09-30T00:12:02.310Z,58.97
2015-09-30T00:12:14.701Z,58.94
2015-09-30T00:12:27.107Z,59.06
2015-09-30T00:12:39.498Z,58.97
2015-09-30T00:12:51.890Z,58.87
2015-09-30T00:13:04.281Z,59.06
2015-09-30T00:13:16.687Z,58.97
2015-09-30T00:13:29.109Z,58.94
2015-09-30T00:13:41.515Z,58.97
2015-09-30T00:13:53.940Z,59.06
2015-09-30T00:14:06.362Z,58.97
2015-09-30T00:14:18.049Z,58.78
2015-09-30T00:14:30.456Z,58.59
2015-09-30T00:14:42.846Z,58.69
2015-09-30T00:14:55.256Z,58.78
2015-09-30T00:15:07.631Z,58.78
2015-09-30T00:15:20.115Z,58.69
2015-09-30T00:15:32.521Z,58.4
2015-09-30T00:15:44.946Z,58.4
2015-09-30T00:15:57.368Z,57.93
2015-09-30T00:16:09.759Z,57.93
2015-09-30T00:16:22.165Z,58.03
2015-09-30T00:16:34.571Z,58.03
2015-09-30T00:16:46.965Z,58.12
2015-09-30T00:16:59.355Z,57.93
2015-09-30T00:17:11.746Z,57.93
2015-09-30T00:17:24.152Z,58.12
2015-09-30T00:17:36.558Z,58.03
2015-09-30T00:17:48.264Z,58.03
2015-09-30T00:18:00.701Z,58.03
2015-09-30T00:18:13.092Z,58.03
2015-09-30T00:18:25.498Z,58.12
2015-09-30T00:18:37.889Z,58.03
2015-09-30T00:18:50.281Z,58.03
2015-09-30T00:19:02.672Z,58.03
2015-09-30T00:19:15.062Z,58.03
2015-09-30T00:19:27.469Z,57.93
2015-09-30T00:19:39.875Z,58.03
2015-09-30T00:19:51.581Z,58.12
2015-09-30T00:20:04.003Z,58.12
2015-09-30T00:20:16.425Z,58.03
2015-09-30T00:20:28.847Z,58.03
2015-09-30T00:20:41.237Z,58.12
2015-09-30T00:20:53.631Z,58.22
2015-09-30T00:21:05.318Z,58.22
2015-09-30T00:21:17.709Z,58.12
2015-09-30T00:21:30.100Z,58.03
2015-09-30T00:21:42.506Z,58.12
2015-09-30T00:21:54.931Z,58.12
2015-09-30T00:22:07.368Z,58.12
2015-09-30T00:22:19.806Z,58.22
2015-09-30T00:22:32.196Z,58.12
2015-09-30T00:22:44.587Z,58.22
2015-09-30T00:22:56.964Z,58.12
2015-09-30T00:23:08.667Z,58.12
2015-09-30T00:23:20.355Z,58.12
2015-09-30T00:23:32.745Z,58.22
2015-09-30T00:23:45.152Z,57.84
2015-09-30T00:23:57.576Z,58.03
2015-09-30T00:24:09.998Z,57.84
2015-09-30T00:24:22.420Z,58.12
2015-09-30T00:24:35.139Z,57.74
2015-09-30T00:24:47.530Z,57.84
2015-09-30T00:24:59.923Z,57.74
2015-09-30T00:25:12.314Z,57.93
2015-09-30T00:25:24.704Z,57.84
2015-09-30T00:25:37.095Z,57.74
2015-09-30T00:25:49.489Z,57.74
2015-09-30T00:26:01.895Z,57.74
2015-09-30T00:26:14.301Z,57.84
2015-09-30T00:26:26.723Z,57.74
2015-09-30T00:26:39.129Z,57.74
2015-09-30T00:26:51.506Z,57.93
2015-09-30T00:27:03.897Z,57.65
2015-09-30T00:27:16.538Z,57.65
2015-09-30T00:27:28.944Z,57.74
2015-09-30T00:27:41.334Z,57.74
2015-09-30T00:27:53.728Z,57.74
2015-09-30T00:28:06.150Z,57.65
2015-09-30T00:28:17.837Z,57.65
2015-09-30T00:28:30.259Z,57.65
2015-09-30T00:28:42.681Z,57.93
2015-09-30T00:28:55.121Z,57.93
2015-09-30T00:29:07.558Z,57.84
2015-09-30T00:29:19.980Z,57.74
2015-09-30T00:29:32.386Z,57.65
2015-09-30T00:29:44.761Z,58.12
2015-09-30T00:29:57.172Z,58.03
2015-09-30T00:30:09.562Z,58.22
2015-09-30T00:30:21.953Z,58.12
2015-09-30T00:30:34.343Z,58.03
2015-09-30T00:30:46.031Z,58.03
2015-09-30T00:30:58.424Z,58.03
2015-09-30T00:31:10.830Z,58.03
2015-09-30T00:31:23.236Z,58.22
2015-09-30T00:31:35.642Z,58.12
2015-09-30T00:31:48.080Z,58.12
2015-09-30T00:32:00.505Z,58.03
2015-09-30T00:32:12.927Z,58.03
2015-09-30T00:32:24.661Z,58.22
2015-09-30T00:32:37.083Z,58.03
2015-09-30T00:32:49.536Z,58.22
2015-09-30T00:33:01.225Z,58.12
2015-09-30T00:33:13.632Z,58.22
2015-09-30T00:33:26.038Z,58.12
2015-09-30T00:33:38.429Z,58.12
2015-09-30T00:33:50.835Z,58.12
2015-09-30T00:34:03.228Z,58.03
2015-09-30T00:34:15.619Z,57.84
2015-09-30T00:34:28.010Z,57.84
2015-09-30T00:34:40.432Z,57.93
2015-09-30T00:34:52.822Z,57.84
2015-09-30T00:35:05.231Z,57.74
2015-09-30T00:35:17.513Z,57.74
2015-09-30T00:35:29.216Z,57.74
2015-09-30T00:35:41.638Z,57.74
2015-09-30T00:35:54.060Z,57.55
2015-09-30T00:36:06.453Z,57.84
2015-09-30T00:36:18.688Z,58.03
2015-09-30T00:36:31.109Z,57.84
2015-09-30T00:36:43.500Z,57.27
2015-09-30T00:36:55.891Z,57.37
2015-09-30T00:37:08.284Z,57.37
2015-09-30T00:37:20.706Z,57.46
2015-09-30T00:37:33.097Z,57.65
2015-09-30T00:37:45.487Z,57.46
2015-09-30T00:37:57.911Z,57.27
2015-09-30T00:38:10.333Z,57.55
2015-09-30T00:38:22.739Z,57.37
2015-09-30T00:38:35.161Z,57.27
2015-09-30T00:38:47.583Z,57.27
2015-09-30T00:39:00.024Z,57.46
2015-09-30T00:39:12.446Z,57.55
2015-09-30T00:39:24.867Z,57.37
2015-09-30T00:39:37.274Z,57.46
2015-09-30T00:39:48.946Z,57.27
2015-09-30T00:40:01.355Z,57.27
2015-09-30T00:40:13.745Z,57.46
2015-09-30T00:40:26.136Z,57.37
2015-09-30T00:40:38.652Z,57.65
2015-09-30T00:40:51.058Z,57.46
2015-09-30T00:41:03.497Z,57.84
2015-09-30T00:41:15.919Z,57.74
2015-09-30T00:41:28.341Z,57.84
2015-09-30T00:41:40.716Z,57.84
2015-09-30T00:41:53.107Z,57.65
2015-09-30T00:42:05.516Z,57.84
2015-09-30T00:42:17.907Z,57.65
2015-09-30T00:42:30.313Z,57.65
2015-09-30T00:42:42.704Z,57.74
2015-09-30T00:42:55.094Z,57.74
2015-09-30T00:43:07.488Z,57.84
2015-09-30T00:43:19.894Z,57.84
2015-09-30T00:43:32.300Z,57.65
2015-09-30T00:43:44.707Z,57.84
2015-09-30T00:43:57.144Z,57.55
2015-09-30T00:44:09.569Z,57.55
2015-09-30T00:44:22.006Z,57.46
2015-09-30T00:44:34.444Z,57.37
2015-09-30T00:44:46.866Z,57.55
2015-09-30T00:44:59.256Z,57.37
2015-09-30T00:45:10.946Z,57.18
2015-09-30T00:45:23.352Z,56.99
2015-09-30T00:45:35.743Z,56.99
2015-09-30T00:45:48.149Z,56.99
2015-09-30T00:46:00.540Z,57.08
2015-09-30T00:46:12.933Z,56.7
2015-09-30T00:46:25.324Z,56.61
2015-09-30T00:46:37.574Z,56.7
2015-09-30T00:46:49.980Z,56.51
2015-09-30T00:47:02.386Z,56.23
2015-09-30T00:47:14.795Z,56.32
2015-09-30T00:47:27.232Z,55.94
2015-09-30T00:47:39.623Z,55.94
2015-09-30T00:47:52.029Z,56.23
2015-09-30T00:48:04.420Z,56.23
2015-09-30T00:48:16.830Z,56.42
2015-09-30T00:48:29.221Z,56.42
2015-09-30T00:48:41.611Z,55.94
2015-09-30T00:48:54.033Z,55.85
2015-09-30T00:49:06.424Z,55.85
2015-09-30T00:49:18.832Z,55.85
2015-09-30T00:49:31.238Z,55.66
2015-09-30T00:49:43.644Z,55.94
2015-09-30T00:49:56.066Z,55.76
2015-09-30T00:50:08.488Z,55.85
2015-09-30T00:50:20.913Z,55.66
2015-09-30T00:50:33.335Z,55.66
2015-09-30T00:50:45.741Z,55.57
2015-09-30T00:50:58.132Z,55.66
2015-09-30T00:51:10.538Z,55.76
2015-09-30T00:51:22.947Z,55.38
2015-09-30T00:51:35.338Z,55.38
2015-09-30T00:51:47.744Z,55.38
2015-09-30T00:51:59.432Z,55.38
2015-09-30T00:52:11.822Z,55.38
2015-09-30T00:52:24.232Z,55.29
2015-09-30T00:52:36.622Z,55.66
2015-09-30T00:52:49.028Z,55.76
2015-09-30T00:53:01.450Z,55.76
2015-09-30T00:53:13.888Z,55.38
2015-09-30T00:53:26.280Z,55.66
2015-09-30T00:53:38.687Z,55.66
2015-09-30T00:53:51.077Z,55.66
2015-09-30T00:54:03.484Z,55.47
2015-09-30T00:54:15.877Z,55.76
2015-09-30T00:54:28.268Z,55.57
2015-09-30T00:54:40.674Z,55.94
2015-09-30T00:54:53.080Z,55.94
2015-09-30T00:55:05.487Z,55.57
2015-09-30T00:55:17.927Z,55.66
2015-09-30T00:55:30.385Z,55.94
2015-09-30T00:55:42.667Z,55.85
2015-09-30T00:55:55.074Z,55.94
2015-09-30T00:56:07.464Z,55.85
2015-09-30T00:56:19.733Z,55.94
2015-09-30T00:56:32.155Z,55.66
2015-09-30T00:56:44.748Z,56.04
2015-09-30T00:56:57.139Z,55.94
2015-09-30T00:57:09.530Z,56.51
2015-09-30T00:57:21.969Z,56.32
2015-09-30T00:57:34.360Z,56.23
2015-09-30T00:57:46.782Z,56.04
2015-09-30T00:57:59.204Z,56.42
2015-09-30T00:58:11.610Z,56.13
2015-09-30T00:58:24.050Z,56.04
2015-09-30T00:58:36.488Z,56.04
2015-09-30T00:58:48.910Z,56.04
2015-09-30T00:59:01.316Z,56.04
2015-09-30T00:59:13.707Z,56.04
2015-09-30T00:59:26.116Z,55.94
2015-09-30T00:59:38.522Z,56.04
2015-09-30T00:59:50.897Z,55.94
2015-09-30T01:00:03.303Z,56.32
2015-09-30T01:00:15.710Z,56.13
2015-09-30T01:00:28.119Z,56.61
2015-09-30T01:00:40.525Z,56.13
2015-09-30T01:00:52.931Z,55.94
2015-09-30T01:01:05.338Z,55.66
2015-09-30T01:01:17.744Z,55.85
2015-09-30T01:01:29.465Z,55.57
2015-09-30T01:01:41.886Z,55.29
2015-09-30T01:01:53.590Z,55.29
2015-09-30T01:02:06.011Z,55.19
2015-09-30T01:02:18.418Z,55.19
2015-09-30T01:02:30.827Z,54.91
2015-09-30T01:02:43.218Z,54.81
2015-09-30T01:02:55.608Z,54.72
2015-09-30T01:03:08.014Z,54.72
2015-09-30T01:03:20.421Z,55.1
2015-09-30T01:03:32.813Z,55.19
2015-09-30T01:03:45.188Z,55.38
2015-09-30T01:03:57.579Z,55.76
2015-09-30T01:04:09.954Z,55.66
2015-09-30T01:04:22.345Z,56.13
2015-09-30T01:04:34.754Z,56.13
2015-09-30T01:04:47.176Z,56.51
2015-09-30T01:04:59.598Z,56.99
2015-09-30T01:05:12.035Z,56.99
2015-09-30T01:05:24.457Z,57.27
2015-09-30T01:05:36.882Z,57.27
2015-09-30T01:05:49.288Z,57.55
2015-09-30T01:06:01.679Z,57.46
2015-09-30T01:06:14.069Z,57.27
2015-09-30T01:06:26.460Z,57.46
2015-09-30T01:06:38.869Z,57.93
2015-09-30T01:06:51.260Z,57.74
2015-09-30T01:07:03.666Z,57.65
2015-09-30T01:07:16.072Z,57.93
2015-09-30T01:07:28.463Z,58.12
2015-09-30T01:07:40.888Z,58.22
2015-09-30T01:07:53.294Z,58.03
2015-09-30T01:08:05.700Z,58.03
2015-09-30T01:08:17.419Z,58.03
2015-09-30T01:08:29.857Z,58.5
2015-09-30T01:08:42.280Z,58.69
2015-09-30T01:08:54.702Z,58.69
2015-09-30T01:09:07.093Z,58.78
2015-09-30T01:09:19.343Z,58.69
2015-09-30T01:09:31.734Z,58.78
2015-09-30T01:09:44.127Z,58.69
2015-09-30T01:09:56.533Z,58.78
2015-09-30T01:10:08.924Z,58.97
2015-09-30T01:10:21.330Z,58.87
2015-09-30T01:10:33.740Z,59.06
2015-09-30T01:10:45.427Z,59.06
2015-09-30T01:10:57.818Z,59.06
2015-09-30T01:11:10.224Z,58.78
2015-09-30T01:11:22.630Z,58.97
2015-09-30T01:11:35.055Z,58.78
2015-09-30T01:11:47.493Z,59.06
2015-09-30T01:11:59.914Z,59.16
2015-09-30T01:12:12.336Z,58.97
2015-09-30T01:12:24.758Z,58.59
2015-09-30T01:12:37.167Z,58.78
2015-09-30T01:12:49.558Z,58.69
2015-09-30T01:13:01.949Z,58.4
2015-09-30T01:13:14.355Z,58.5
2015-09-30T01:13:26.746Z,58.03
2015-09-30T01:13:39.138Z,58.03
2015-09-30T01:13:51.560Z,58.03
2015-09-30T01:14:03.966Z,58.12
2015-09-30T01:14:16.373Z,58.03
2015-09-30T01:14:28.779Z,58.03
2015-09-30T01:14:41.187Z,58.12
2015-09-30T01:14:53.625Z,58.03
2015-09-30T01:15:06.046Z,58.03
2015-09-30T01:15:18.468Z,58.03
2015-09-30T01:15:30.875Z,58.03
2015-09-30T01:15:43.285Z,57.93
2015-09-30T01:15:55.675Z,58.4
2015-09-30T01:16:08.066Z,58.5
2015-09-30T01:16:20.457Z,58.5
2015-09-30T01:16:32.847Z,58.87
2015-09-30T01:16:45.240Z,58.69
2015-09-30T01:16:57.631Z,58.59
2015-09-30T01:17:10.037Z,58.69
2015-09-30T01:17:22.427Z,58.69
2015-09-30T01:17:34.834Z,58.87
2015-09-30T01:17:47.259Z,58.78
2015-09-30T01:17:59.680Z,58.87
2015-09-30T01:18:12.102Z,58.97
2015-09-30T01:18:24.555Z,59.16
2015-09-30T01:18:36.946Z,59.16
2015-09-30T01:18:49.340Z,59.06
2015-09-30T01:19:01.746Z,59.06
2015-09-30T01:19:14.137Z,59.16
2015-09-30T01:19:26.527Z,59.06
2015-09-30T01:19:38.933Z,58.97
2015-09-30T01:19:51.326Z,59.25
2015-09-30T01:20:03.732Z,59.25
2015-09-30T01:20:16.139Z,59.25
2015-09-30T01:20:28.545Z,59.16
2015-09-30T01:20:40.954Z,59.06
2015-09-30T01:20:53.392Z,59.06
2015-09-30T01:21:05.813Z,59.25
2015-09-30T01:21:18.267Z,59.25
2015-09-30T01:21:30.688Z,59.35
2015-09-30T01:21:43.145Z,59.35
2015-09-30T01:21:55.535Z,59.25
2015-09-30T01:22:07.941Z,59.35
2015-09-30T01:22:20.348Z,59.25
2015-09-30T01:22:32.738Z,59.25
2015-09-30T01:22:45.131Z,59.25
2015-09-30T01:22:57.537Z,59.16
2015-09-30T01:23:09.928Z,59.25
2015-09-30T01:23:22.334Z,59.25
2015-09-30T01:23:34.725Z,59.54
2015-09-30T01:23:47.135Z,59.35
2015-09-30T01:23:59.541Z,59.35
2015-09-30T01:24:11.963Z,59.44
2015-09-30T01:24:24.369Z,59.44
2015-09-30T01:24:36.822Z,59.44
2015-09-30T01:24:49.246Z,59.54
2015-09-30T01:25:01.668Z,59.54
2015-09-30T01:25:14.059Z,59.54
2015-09-30T01:25:26.481Z,59.63
2015-09-30T01:25:38.871Z,59.44
2015-09-30T01:25:51.281Z,59.54
2015-09-30T01:26:03.671Z,59.44
2015-09-30T01:26:16.077Z,59.54
2015-09-30T01:26:28.468Z,59.25
2015-09-30T01:26:40.874Z,59.25
2015-09-30T01:26:53.142Z,59.25
2015-09-30T01:27:05.548Z,59.06
2015-09-30T01:27:17.954Z,59.25
2015-09-30T01:27:30.392Z,58.97
2015-09-30T01:27:42.814Z,58.97
2015-09-30T01:27:55.254Z,58.97
2015-09-30T01:28:07.676Z,58.97
2015-09-30T01:28:20.114Z,59.06
2015-09-30T01:28:32.520Z,58.78
2015-09-30T01:28:44.911Z,58.87
2015-09-30T01:28:57.320Z,58.69
2015-09-30T01:29:09.710Z,58.78
2015-09-30T01:29:22.117Z,58.69
2015-09-30T01:29:34.523Z,58.78
2015-09-30T01:29:46.914Z,58.59
2015-09-30T01:29:59.323Z,58.4
2015-09-30T01:30:11.729Z,58.03
2015-09-30T01:30:24.135Z,57.84
2015-09-30T01:30:36.542Z,57.84
2015-09-30T01:30:48.963Z,57.46
2015-09-30T01:31:01.387Z,56.99
2015-09-30T01:31:13.809Z,56.99
2015-09-30T01:31:26.262Z,56.32
2015-09-30T01:31:38.653Z,56.51
2015-09-30T01:31:51.044Z,55.66
2015-09-30T01:32:03.453Z,55.47
2015-09-30T01:32:15.843Z,55.38
2015-09-30T01:32:28.250Z,54.91
2015-09-30T01:32:40.640Z,55
2015-09-30T01:32:53.031Z,54.62
2015-09-30T01:33:05.440Z,54.72
2015-09-30T01:33:17.846Z,55.1
2015-09-30T01:33:30.253Z,55
2015-09-30T01:33:41.940Z,55.38
2015-09-30T01:33:54.362Z,55.29
2015-09-30T01:34:06.084Z,55
2015-09-30T01:34:18.506Z,55.19
2015-09-30T01:34:30.928Z,55.1
2015-09-30T01:34:43.349Z,54.91
2015-09-30T01:34:55.740Z,54.72
2015-09-30T01:35:08.134Z,54.44
2015-09-30T01:35:20.524Z,54.25
2015-09-30T01:35:32.915Z,54.06
2015-09-30T01:35:45.321Z,54.06
2015-09-30T01:35:57.712Z,53.58
2015-09-30T01:36:10.105Z,53.39
2015-09-30T01:36:22.512Z,53.58
2015-09-30T01:36:34.918Z,53.11
2015-09-30T01:36:47.340Z,53.3
2015-09-30T01:36:59.762Z,53.3
2015-09-30T01:37:12.186Z,52.92
2015-09-30T01:37:24.607Z,52.83
2015-09-30T01:37:37.029Z,53.02
2015-09-30T01:37:49.451Z,53.11
2015-09-30T01:38:01.857Z,53.11
2015-09-30T01:38:14.267Z,53.39
2015-09-30T01:38:26.657Z,53.68
2015-09-30T01:38:39.048Z,53.58
2015-09-30T01:38:51.439Z,53.3
2015-09-30T01:39:03.848Z,53.58
2015-09-30T01:39:16.238Z,53.68
2015-09-30T01:39:28.629Z,53.68
2015-09-30T01:39:41.035Z,53.49
2015-09-30T01:39:53.426Z,53.58
2015-09-30T01:40:05.850Z,53.77
2015-09-30T01:40:18.115Z,53.87
2015-09-30T01:40:30.537Z,53.77
2015-09-30T01:40:42.959Z,53.68
2015-09-30T01:40:55.397Z,53.49
2015-09-30T01:41:07.822Z,53.3
2015-09-30T01:41:20.228Z,53.2
2015-09-30T01:41:32.618Z,53.39
2015-09-30T01:41:45.009Z,53.2
2015-09-30T01:41:57.431Z,53.11
2015-09-30T01:42:09.809Z,52.92
2015-09-30T01:42:22.200Z,53.02
2015-09-30T01:42:34.590Z,53.3
2015-09-30T01:42:46.965Z,53.02
2015-09-30T01:42:59.356Z,52.83
2015-09-30T01:43:11.748Z,52.45
2015-09-30T01:43:24.155Z,52.45
2015-09-30T01:43:36.561Z,52.17
2015-09-30T01:43:48.998Z,52.07
2015-09-30T01:44:01.420Z,51.98
2015-09-30T01:44:13.845Z,51.5
2015-09-30T01:44:26.267Z,51.41
2015-09-30T01:44:38.705Z,51.69
2015-09-30T01:44:51.111Z,51.5
2015-09-30T01:45:03.501Z,51.32
2015-09-30T01:45:15.895Z,51.32
2015-09-30T01:45:28.286Z,51.41
2015-09-30T01:45:40.676Z,50.75
2015-09-30T01:45:53.083Z,50.94
2015-09-30T01:46:05.473Z,50.65
2015-09-30T01:46:17.867Z,50.84
2015-09-30T01:46:30.289Z,50.46
2015-09-30T01:46:42.695Z,50.27
2015-09-30T01:46:55.101Z,50.27
2015-09-30T01:47:07.507Z,50.65
2015-09-30T01:47:19.931Z,50.27
2015-09-30T01:47:32.338Z,49.9
2015-09-30T01:47:44.728Z,49.9
2015-09-30T01:47:57.134Z,49.9
2015-09-30T01:48:09.525Z,49.71
2015-09-30T01:48:21.919Z,49.33
2015-09-30T01:48:34.341Z,49.71
2015-09-30T01:48:46.747Z,49.62
2015-09-30T01:48:59.137Z,49.43
2015-09-30T01:49:11.528Z,49.71
2015-09-30T01:49:23.937Z,49.62
2015-09-30T01:49:36.344Z,49.62
2015-09-30T01:49:48.750Z,49.71
2015-09-30T01:50:01.172Z,49.52
2015-09-30T01:50:13.594Z,49.71
2015-09-30T01:50:26.033Z,49.62
2015-09-30T01:50:38.471Z,49.52
2015-09-30T01:50:50.877Z,49.33
2015-09-30T01:51:03.267Z,49.9
2015-09-30T01:51:15.658Z,49.99
2015-09-30T01:51:28.068Z,49.99
2015-09-30T01:51:40.459Z,49.8
2015-09-30T01:51:52.850Z,50.27
2015-09-30T01:52:05.240Z,50.46
2015-09-30T01:52:17.646Z,50.27
2015-09-30T01:52:30.039Z,50.37
2015-09-30T01:52:42.445Z,50.18
2015-09-30T01:52:54.852Z,50.27
2015-09-30T01:53:07.258Z,50.37
2015-09-30T01:53:19.680Z,50.27
2015-09-30T01:53:32.105Z,50.65
2015-09-30T01:53:44.542Z,50.46
2015-09-30T01:53:56.964Z,50.65
2015-09-30T01:54:09.370Z,50.56
2015-09-30T01:54:21.792Z,50.37
2015-09-30T01:54:34.186Z,50.94
2015-09-30T01:54:46.576Z,50.84
2015-09-30T01:54:58.967Z,50.75
2015-09-30T01:55:11.358Z,50.46
2015-09-30T01:55:23.764Z,51.03
2015-09-30T01:55:36.157Z,50.94
2015-09-30T01:55:48.548Z,50.94
2015-09-30T01:56:00.954Z,50.94
2015-09-30T01:56:13.361Z,50.94
2015-09-30T01:56:25.782Z,50.94
2015-09-30T01:56:38.191Z,50.94
2015-09-30T01:56:50.613Z,50.84
2015-09-30T01:57:02.894Z,50.75
2015-09-30T01:57:15.316Z,50.84
2015-09-30T01:57:27.566Z,50.65
2015-09-30T01:57:39.959Z,51.22
2015-09-30T01:57:52.366Z,51.22
2015-09-30T01:58:04.772Z,51.41
2015-09-30T01:58:17.178Z,51.41
2015-09-30T01:58:29.569Z,51.79
2015-09-30T01:58:41.978Z,51.98
2015-09-30T01:58:54.369Z,52.55
2015-09-30T01:59:06.775Z,52.64
2015-09-30T01:59:19.181Z,53.02
2015-09-30T01:59:31.572Z,53.02
2015-09-30T01:59:43.996Z,53.39
2015-09-30T01:59:56.417Z,53.68
2015-09-30T02:00:08.839Z,53.68
2015-09-30T02:00:21.292Z,53.39
2015-09-30T02:00:33.683Z,53.58
2015-09-30T02:00:46.077Z,53.68
2015-09-30T02:00:58.467Z,53.58
2015-09-30T02:01:10.858Z,53.3
2015-09-30T02:01:23.249Z,53.3
2015-09-30T02:01:35.655Z,53.39
2015-09-30T02:01:48.048Z,52.92
2015-09-30T02:01:59.736Z,53.3
2015-09-30T02:02:12.127Z,53.3
2015-09-30T02:02:24.533Z,53.49
2015-09-30T02:02:36.222Z,53.49
2015-09-30T02:02:48.644Z,53.77
2015-09-30T02:03:01.082Z,53.39
2015-09-30T02:03:13.504Z,53.58
2015-09-30T02:03:25.941Z,53.68
2015-09-30T02:03:38.383Z,54.15
2015-09-30T02:03:50.773Z,53.77
2015-09-30T02:04:03.195Z,53.96
2015-09-30T02:04:15.586Z,54.25
2015-09-30T02:04:27.836Z,54.34
2015-09-30T02:04:40.228Z,54.53
2015-09-30T02:04:52.666Z,54.44
2015-09-30T02:05:05.072Z,54.91
2015-09-30T02:05:17.494Z,54.62
2015-09-30T02:05:29.916Z,54.62
2015-09-30T02:05:42.355Z,55.1
2015-09-30T02:05:54.746Z,55
2015-09-30T02:06:07.137Z,55.38
2015-09-30T02:06:19.527Z,55.38
2015-09-30T02:06:31.933Z,55.38
2015-09-30T02:06:44.327Z,55.57
2015-09-30T02:06:56.718Z,55.66
2015-09-30T02:07:09.108Z,55.66
2015-09-30T02:07:21.515Z,55.76
2015-09-30T02:07:33.749Z,55.94
2015-09-30T02:07:45.455Z,55.66
2015-09-30T02:07:57.846Z,55.94
2015-09-30T02:08:10.268Z,55.94
2015-09-30T02:08:22.689Z,55.94
2015-09-30T02:08:35.127Z,55.85
2015-09-30T02:08:47.567Z,55.94
2015-09-30T02:08:59.989Z,56.13
2015-09-30T02:09:12.396Z,56.42
2015-09-30T02:09:24.802Z,56.13
2015-09-30T02:09:37.192Z,56.23
2015-09-30T02:09:49.445Z,56.04
2015-09-30T02:10:01.836Z,55.85
2015-09-30T02:10:14.242Z,56.04
2015-09-30T02:10:26.633Z,56.32
2015-09-30T02:10:39.039Z,56.61
2015-09-30T02:10:51.433Z,56.61
2015-09-30T02:11:03.839Z,56.42
2015-09-30T02:11:16.245Z,56.7
2015-09-30T02:11:28.652Z,56.7
2015-09-30T02:11:41.089Z,56.7
2015-09-30T02:11:53.513Z,56.96
2015-09-30T02:12:05.935Z,56.86
2015-09-30T02:12:18.357Z,57.34
2015-09-30T02:12:30.779Z,56.86
2015-09-30T02:12:43.188Z,57.05
2015-09-30T02:12:55.578Z,56.96
2015-09-30T02:13:07.985Z,57.15
2015-09-30T02:13:20.375Z,57.15
2015-09-30T02:13:32.766Z,57.37
2015-09-30T02:13:45.159Z,57.24
2015-09-30T02:13:57.565Z,57.08
2015-09-30T02:14:09.955Z,57.46
2015-09-30T02:14:22.362Z,57.34
2015-09-30T02:14:34.768Z,57.27
2015-09-30T02:14:47.193Z,57.43
2015-09-30T02:14:59.630Z,57.43
2015-09-30T02:15:12.052Z,57.53
2015-09-30T02:15:24.490Z,57.62
2015-09-30T02:15:36.927Z,57.71
2015-09-30T02:15:49.321Z,57.71
2015-09-30T02:16:01.711Z,57.62
2015-09-30T02:16:14.118Z,57.71
2015-09-30T02:16:26.540Z,57.71
2015-09-30T02:16:38.930Z,57.62
2015-09-30T02:16:51.324Z,57.9
2015-09-30T02:17:03.714Z,58
2015-09-30T02:17:16.105Z,58.09
2015-09-30T02:17:28.496Z,58.09
2015-09-30T02:17:40.918Z,58
2015-09-30T02:17:53.327Z,57.9
2015-09-30T02:18:05.733Z,58.37
2015-09-30T02:18:18.155Z,58.47
2015-09-30T02:18:30.577Z,58.56
2015-09-30T02:18:43.030Z,58.65
2015-09-30T02:18:55.470Z,58.84
2015-09-30T02:19:07.877Z,58.94
2015-09-30T02:19:20.267Z,58.94
2015-09-30T02:19:32.658Z,59.22
2015-09-30T02:19:45.049Z,59.32
2015-09-30T02:19:57.457Z,59.13
2015-09-30T02:20:09.847Z,59.22
2015-09-30T02:20:22.238Z,59.32
2015-09-30T02:20:34.629Z,59.32
2015-09-30T02:20:47.019Z,59.51
2015-09-30T02:20:59.428Z,59.51
2015-09-30T02:21:11.818Z,59.6
2015-09-30T02:21:24.224Z,59.51
2015-09-30T02:21:36.490Z,59.41
2015-09-30T02:21:48.896Z,59.32
2015-09-30T02:22:01.291Z,59.41
2015-09-30T02:22:13.682Z,59.7
2015-09-30T02:22:26.088Z,59.7
2015-09-30T02:22:38.478Z,59.79
2015-09-30T02:22:50.869Z,59.89
2015-09-30T02:23:03.277Z,59.98
2015-09-30T02:23:15.668Z,60.46
2015-09-30T02:23:28.059Z,60.17
2015-09-30T02:23:40.465Z,60.46
2015-09-30T02:23:52.168Z,60.55
2015-09-30T02:24:04.563Z,60.36
2015-09-30T02:24:16.984Z,60.27
2015-09-30T02:24:29.406Z,60.46
2015-09-30T02:24:41.844Z,60.64
2015-09-30T02:24:54.266Z,60.64
2015-09-30T02:25:06.705Z,60.93
2015-09-30T02:25:19.111Z,60.83
2015-09-30T02:25:31.502Z,60.36
2015-09-30T02:25:43.908Z,60.64
2015-09-30T02:25:55.596Z,60.55
2015-09-30T02:26:07.988Z,60.36
2015-09-30T02:26:19.676Z,60.55
2015-09-30T02:26:32.082Z,60.55
2015-09-30T02:26:44.473Z,60.46
2015-09-30T02:26:56.176Z,60.64
2015-09-30T02:27:08.586Z,60.36
2015-09-30T02:27:20.992Z,60.55
2015-09-30T02:27:33.399Z,60.64
2015-09-30T02:27:45.821Z,60.64
2015-09-30T02:27:58.258Z,60.64
2015-09-30T02:28:10.698Z,60.83
2015-09-30T02:28:23.119Z,60.74
2015-09-30T02:28:35.526Z,60.74
2015-09-30T02:28:47.916Z,60.64
2015-09-30T02:29:00.307Z,60.74
2015-09-30T02:29:12.701Z,60.64
2015-09-30T02:29:25.107Z,60.74
2015-09-30T02:29:37.497Z,60.83
2015-09-30T02:29:49.904Z,60.83
2015-09-30T02:30:02.310Z,60.74
2015-09-30T02:30:14.735Z,60.93
2015-09-30T02:30:26.438Z,60.74
2015-09-30T02:30:38.844Z,60.93
2015-09-30T02:30:51.282Z,60.83
2015-09-30T02:31:03.688Z,60.74
2015-09-30T02:31:16.081Z,60.74
2015-09-30T02:31:28.487Z,60.74
2015-09-30T02:31:40.877Z,60.74
2015-09-30T02:31:53.268Z,60.55
2015-09-30T02:32:05.659Z,60.46
2015-09-30T02:32:18.068Z,60.55
2015-09-30T02:32:30.490Z,60.64
2015-09-30T02:32:42.896Z,60.36
2015-09-30T02:32:55.318Z,60.64
2015-09-30T02:33:07.740Z,60.55
2015-09-30T02:33:20.148Z,60.93
2015-09-30T02:33:32.554Z,60.74
2015-09-30T02:33:44.945Z,60.64
2015-09-30T02:33:57.351Z,60.46
2015-09-30T02:34:09.730Z,60.83
2015-09-30T02:34:22.121Z,60.27
2015-09-30T02:34:34.527Z,60.17
2015-09-30T02:34:46.918Z,60.46
2015-09-30T02:34:59.308Z,60.46
2015-09-30T02:35:11.732Z,60.55
2015-09-30T02:35:24.138Z,60.64
2015-09-30T02:35:36.545Z,60.55
2015-09-30T02:35:48.967Z,60.55
2015-09-30T02:36:00.670Z,60.64
2015-09-30T02:36:13.095Z,60.64
2015-09-30T02:36:25.516Z,59.98
2015-09-30T02:36:37.923Z,60.55
2015-09-30T02:36:50.313Z,60.27
2015-09-30T02:37:01.985Z,60.17
2015-09-30T02:37:14.379Z,60.36
2015-09-30T02:37:26.769Z,60.46
2015-09-30T02:37:39.191Z,60.55
2015-09-30T02:37:51.582Z,60.46
2015-09-30T02:38:03.973Z,60.46
2015-09-30T02:38:16.396Z,60.27
2015-09-30T02:38:28.803Z,60.46
2015-09-30T02:38:41.209Z,60.36
2015-09-30T02:38:53.631Z,60.27
2015-09-30T02:39:06.053Z,60.36
2015-09-30T02:39:18.462Z,60.55
2015-09-30T02:39:30.853Z,60.55
2015-09-30T02:39:43.259Z,60.64